sensor_id;sensor_type;location;lat;lon;timestamp;P1;durP1;ratioP1;P2;durP2;ratioP2
6372;SDS011;3219;51.362;7.074;2022-08-01T00:01:50;12.88;;;10.00;;
6372;SDS011;3219;51.362;7.074;2022-08-01T00:04:17;15.75;;;10.70;;
6372;SDS011;3219;51.362;7.074;2022-08-01T00:06:44;13.27;;;10.73;;
6372;SDS011;3219;51.362;7.074;2022-08-01T00:09:11;15.77;;;12.48;;
6372;SDS011;3219;51.362;7.074;2022-08-01T00:11:39;16.95;;;13.23;;
6372;SDS011;3219;51.362;7.074;2022-08-01T00:14:06;14.07;;;11.43;;
6372;SDS011;3219;51.362;7.074;2022-08-01T00:16:35;15.88;;;13.77;;
6372;SDS011;3219;51.362;7.074;2022-08-01T00:19:03;13.95;;;12.55;;
6372;SDS011;3219;51.362;7.074;2022-08-01T00:21:31;15.40;;;12.77;;
6372;SDS011;3219;51.362;7.074;2022-08-01T00:23:58;14.50;;;12.93;;
6372;SDS011;3219;51.362;7.074;2022-08-01T00:26:25;15.95;;;13.50;;
6372;SDS011;3219;51.362;7.074;2022-08-01T00:28:52;17.05;;;14.25;;
6372;SDS011;3219;51.362;7.074;2022-08-01T00:31:19;18.48;;;14.32;;
6372;SDS011;3219;51.362;7.074;2022-08-01T00:33:46;16.38;;;14.68;;
6372;SDS011;3219;51.362;7.074;2022-08-01T00:36:15;17.48;;;15.27;;
6372;SDS011;3219;51.362;7.074;2022-08-01T00:38:42;25.55;;;18.70;;
6372;SDS011;3219;51.362;7.074;2022-08-01T00:41:09;25.00;;;21.35;;
6372;SDS011;3219;51.362;7.074;2022-08-01T00:43:36;26.23;;;23.42;;
6372;SDS011;3219;51.362;7.074;2022-08-01T00:46:03;27.30;;;22.00;;
6372;SDS011;3219;51.362;7.074;2022-08-01T00:48:30;28.77;;;25.67;;
6372;SDS011;3219;51.362;7.074;2022-08-01T00:50:57;27.40;;;24.45;;
6372;SDS011;3219;51.362;7.074;2022-08-01T00:53:25;32.08;;;27.35;;
6372;SDS011;3219;51.362;7.074;2022-08-01T00:55:53;33.03;;;26.52;;
6372;SDS011;3219;51.362;7.074;2022-08-01T00:58:20;37.60;;;25.90;;
6372;SDS011;3219;51.362;7.074;2022-08-01T01:00:47;33.15;;;25.45;;
6372;SDS011;3219;51.362;7.074;2022-08-01T01:03:14;28.95;;;23.83;;
6372;SDS011;3219;51.362;7.074;2022-08-01T01:05:44;29.15;;;24.38;;
6372;SDS011;3219;51.362;7.074;2022-08-01T01:08:13;34.05;;;25.55;;
6372;SDS011;3219;51.362;7.074;2022-08-01T01:10:45;38.20;;;26.10;;
6372;SDS011;3219;51.362;7.074;2022-08-01T01:13:16;29.27;;;23.85;;
6372;SDS011;3219;51.362;7.074;2022-08-01T01:15:46;30.80;;;24.60;;
6372;SDS011;3219;51.362;7.074;2022-08-01T01:18:14;33.42;;;25.67;;
6372;SDS011;3219;51.362;7.074;2022-08-01T01:20:44;29.60;;;23.02;;
6372;SDS011;3219;51.362;7.074;2022-08-01T01:23:19;33.58;;;23.67;;
6372;SDS011;3219;51.362;7.074;2022-08-01T01:25:54;32.85;;;23.27;;
6372;SDS011;3219;51.362;7.074;2022-08-01T01:28:27;32.17;;;22.65;;
6372;SDS011;3219;51.362;7.074;2022-08-01T01:30:57;25.55;;;20.88;;
6372;SDS011;3219;51.362;7.074;2022-08-01T01:33:25;31.90;;;23.58;;
6372;SDS011;3219;51.362;7.074;2022-08-01T01:35:55;34.20;;;25.10;;
6372;SDS011;3219;51.362;7.074;2022-08-01T01:38:25;35.67;;;24.87;;
6372;SDS011;3219;51.362;7.074;2022-08-01T01:40:53;29.88;;;25.42;;
6372;SDS011;3219;51.362;7.074;2022-08-01T01:43:21;36.08;;;26.60;;
6372;SDS011;3219;51.362;7.074;2022-08-01T01:45:50;34.97;;;26.90;;
6372;SDS011;3219;51.362;7.074;2022-08-01T01:48:19;39.22;;;27.48;;
6372;SDS011;3219;51.362;7.074;2022-08-01T01:50:47;33.47;;;26.13;;
6372;SDS011;3219;51.362;7.074;2022-08-01T01:53:15;30.63;;;23.40;;
6372;SDS011;3219;51.362;7.074;2022-08-01T01:55:43;33.95;;;25.13;;
6372;SDS011;3219;51.362;7.074;2022-08-01T01:58:12;28.70;;;23.70;;
6372;SDS011;3219;51.362;7.074;2022-08-01T02:00:39;36.65;;;24.63;;
6372;SDS011;3219;51.362;7.074;2022-08-01T02:03:08;28.98;;;23.83;;
6372;SDS011;3219;51.362;7.074;2022-08-01T02:05:38;35.50;;;24.80;;
6372;SDS011;3219;51.362;7.074;2022-08-01T02:08:07;34.55;;;24.50;;
6372;SDS011;3219;51.362;7.074;2022-08-01T02:10:35;33.25;;;24.95;;
6372;SDS011;3219;51.362;7.074;2022-08-01T02:13:03;37.92;;;26.30;;
6372;SDS011;3219;51.362;7.074;2022-08-01T02:15:31;34.15;;;26.92;;
6372;SDS011;3219;51.362;7.074;2022-08-01T02:17:59;34.58;;;28.60;;
6372;SDS011;3219;51.362;7.074;2022-08-01T02:20:27;41.42;;;30.58;;
6372;SDS011;3219;51.362;7.074;2022-08-01T02:22:58;38.13;;;28.00;;
6372;SDS011;3219;51.362;7.074;2022-08-01T02:25:28;36.83;;;28.27;;
6372;SDS011;3219;51.362;7.074;2022-08-01T02:28:01;40.60;;;28.53;;
6372;SDS011;3219;51.362;7.074;2022-08-01T02:30:30;37.15;;;28.05;;
6372;SDS011;3219;51.362;7.074;2022-08-01T02:32:59;41.15;;;31.65;;
6372;SDS011;3219;51.362;7.074;2022-08-01T02:35:28;37.83;;;30.38;;
6372;SDS011;3219;51.362;7.074;2022-08-01T02:37:57;50.30;;;32.55;;
6372;SDS011;3219;51.362;7.074;2022-08-01T02:40:26;38.72;;;30.27;;
6372;SDS011;3219;51.362;7.074;2022-08-01T02:42:54;37.33;;;30.00;;
6372;SDS011;3219;51.362;7.074;2022-08-01T02:45:23;37.20;;;30.25;;
6372;SDS011;3219;51.362;7.074;2022-08-01T02:47:52;32.75;;;28.75;;
6372;SDS011;3219;51.362;7.074;2022-08-01T02:50:19;38.05;;;27.52;;
6372;SDS011;3219;51.362;7.074;2022-08-01T02:52:47;36.13;;;27.13;;
6372;SDS011;3219;51.362;7.074;2022-08-01T02:55:16;43.55;;;29.77;;
6372;SDS011;3219;51.362;7.074;2022-08-01T02:57:43;34.53;;;28.15;;
6372;SDS011;3219;51.362;7.074;2022-08-01T03:00:12;39.45;;;26.48;;
6372;SDS011;3219;51.362;7.074;2022-08-01T03:02:39;30.83;;;25.00;;
6372;SDS011;3219;51.362;7.074;2022-08-01T03:05:07;36.00;;;25.95;;
6372;SDS011;3219;51.362;7.074;2022-08-01T03:07:34;37.20;;;26.45;;
6372;SDS011;3219;51.362;7.074;2022-08-01T03:10:04;33.80;;;26.88;;
6372;SDS011;3219;51.362;7.074;2022-08-01T03:12:33;37.90;;;27.30;;
6372;SDS011;3219;51.362;7.074;2022-08-01T03:15:00;37.40;;;27.77;;
6372;SDS011;3219;51.362;7.074;2022-08-01T03:17:29;37.85;;;27.95;;
6372;SDS011;3219;51.362;7.074;2022-08-01T03:19:57;36.03;;;27.67;;
6372;SDS011;3219;51.362;7.074;2022-08-01T03:22:25;40.50;;;28.65;;
6372;SDS011;3219;51.362;7.074;2022-08-01T03:24:54;37.78;;;27.98;;
6372;SDS011;3219;51.362;7.074;2022-08-01T03:27:23;40.67;;;29.27;;
6372;SDS011;3219;51.362;7.074;2022-08-01T03:29:52;40.22;;;29.75;;
6372;SDS011;3219;51.362;7.074;2022-08-01T03:32:21;44.95;;;32.22;;
6372;SDS011;3219;51.362;7.074;2022-08-01T03:34:48;45.58;;;29.90;;
6372;SDS011;3219;51.362;7.074;2022-08-01T03:37:17;38.95;;;30.67;;
6372;SDS011;3219;51.362;7.074;2022-08-01T03:39:50;44.03;;;32.50;;
6372;SDS011;3219;51.362;7.074;2022-08-01T03:42:19;41.92;;;29.73;;
6372;SDS011;3219;51.362;7.074;2022-08-01T03:44:47;44.28;;;29.08;;
6372;SDS011;3219;51.362;7.074;2022-08-01T03:47:17;43.17;;;30.10;;
6372;SDS011;3219;51.362;7.074;2022-08-01T03:49:44;39.80;;;28.80;;
6372;SDS011;3219;51.362;7.074;2022-08-01T03:52:13;38.50;;;28.65;;
6372;SDS011;3219;51.362;7.074;2022-08-01T03:54:42;40.72;;;28.25;;
6372;SDS011;3219;51.362;7.074;2022-08-01T03:57:11;36.92;;;27.50;;
6372;SDS011;3219;51.362;7.074;2022-08-01T03:59:38;33.05;;;25.75;;
6372;SDS011;3219;51.362;7.074;2022-08-01T04:02:05;36.30;;;26.95;;
6372;SDS011;3219;51.362;7.074;2022-08-01T04:04:34;30.50;;;25.05;;
6372;SDS011;3219;51.362;7.074;2022-08-01T04:07:01;36.08;;;24.60;;
6372;SDS011;3219;51.362;7.074;2022-08-01T04:09:31;31.33;;;24.80;;
6372;SDS011;3219;51.362;7.074;2022-08-01T04:11:58;39.78;;;28.20;;
6372;SDS011;3219;51.362;7.074;2022-08-01T04:14:26;40.60;;;28.20;;
6372;SDS011;3219;51.362;7.074;2022-08-01T04:16:53;36.55;;;27.48;;
6372;SDS011;3219;51.362;7.074;2022-08-01T04:19:20;39.03;;;28.10;;
6372;SDS011;3219;51.362;7.074;2022-08-01T04:21:51;38.40;;;28.25;;
6372;SDS011;3219;51.362;7.074;2022-08-01T04:24:18;39.10;;;28.48;;
6372;SDS011;3219;51.362;7.074;2022-08-01T04:26:46;37.67;;;28.25;;
6372;SDS011;3219;51.362;7.074;2022-08-01T04:29:14;36.70;;;28.48;;
6372;SDS011;3219;51.362;7.074;2022-08-01T04:31:43;37.40;;;27.67;;
6372;SDS011;3219;51.362;7.074;2022-08-01T04:34:11;35.40;;;27.00;;
6372;SDS011;3219;51.362;7.074;2022-08-01T04:36:39;36.30;;;26.42;;
6372;SDS011;3219;51.362;7.074;2022-08-01T04:39:09;33.30;;;25.42;;
6372;SDS011;3219;51.362;7.074;2022-08-01T04:41:36;35.30;;;25.52;;
6372;SDS011;3219;51.362;7.074;2022-08-01T04:44:04;31.58;;;23.85;;
6372;SDS011;3219;51.362;7.074;2022-08-01T04:46:31;29.27;;;22.77;;
6372;SDS011;3219;51.362;7.074;2022-08-01T04:49:02;33.78;;;23.35;;
6372;SDS011;3219;51.362;7.074;2022-08-01T04:51:29;29.40;;;21.95;;
6372;SDS011;3219;51.362;7.074;2022-08-01T04:53:56;29.60;;;21.52;;
6372;SDS011;3219;51.362;7.074;2022-08-01T04:56:25;31.83;;;21.45;;
6372;SDS011;3219;51.362;7.074;2022-08-01T04:58:52;25.63;;;19.73;;
6372;SDS011;3219;51.362;7.074;2022-08-01T05:01:33;29.50;;;22.95;;
6372;SDS011;3219;51.362;7.074;2022-08-01T05:04:00;30.38;;;22.48;;
6372;SDS011;3219;51.362;7.074;2022-08-01T05:06:27;28.35;;;21.17;;
6372;SDS011;3219;51.362;7.074;2022-08-01T05:08:54;26.02;;;20.48;;
6372;SDS011;3219;51.362;7.074;2022-08-01T05:11:21;27.05;;;20.02;;
6372;SDS011;3219;51.362;7.074;2022-08-01T05:13:50;23.45;;;19.33;;
6372;SDS011;3219;51.362;7.074;2022-08-01T05:16:17;29.65;;;20.13;;
6372;SDS011;3219;51.362;7.074;2022-08-01T05:18:44;27.38;;;19.35;;
6372;SDS011;3219;51.362;7.074;2022-08-01T05:21:11;21.75;;;18.50;;
6372;SDS011;3219;51.362;7.074;2022-08-01T05:23:38;22.15;;;17.75;;
6372;SDS011;3219;51.362;7.074;2022-08-01T05:26:05;21.75;;;17.35;;
6372;SDS011;3219;51.362;7.074;2022-08-01T05:28:32;24.55;;;18.15;;
6372;SDS011;3219;51.362;7.074;2022-08-01T05:31:01;23.65;;;17.52;;
6372;SDS011;3219;51.362;7.074;2022-08-01T05:33:28;23.63;;;18.13;;
6372;SDS011;3219;51.362;7.074;2022-08-01T05:35:55;23.85;;;17.52;;
6372;SDS011;3219;51.362;7.074;2022-08-01T05:38:22;22.30;;;16.80;;
6372;SDS011;3219;51.362;7.074;2022-08-01T05:40:49;25.80;;;16.95;;
6372;SDS011;3219;51.362;7.074;2022-08-01T05:43:16;24.85;;;19.42;;
6372;SDS011;3219;51.362;7.074;2022-08-01T05:45:43;21.98;;;19.17;;
6372;SDS011;3219;51.362;7.074;2022-08-01T05:48:12;23.00;;;16.73;;
6372;SDS011;3219;51.362;7.074;2022-08-01T05:50:39;20.60;;;16.40;;
6372;SDS011;3219;51.362;7.074;2022-08-01T05:53:06;18.50;;;14.95;;
6372;SDS011;3219;51.362;7.074;2022-08-01T05:55:34;20.40;;;16.88;;
6372;SDS011;3219;51.362;7.074;2022-08-01T05:58:01;20.30;;;14.63;;
6372;SDS011;3219;51.362;7.074;2022-08-01T06:00:28;19.98;;;15.00;;
6372;SDS011;3219;51.362;7.074;2022-08-01T06:02:55;18.08;;;15.07;;
6372;SDS011;3219;51.362;7.074;2022-08-01T06:05:24;20.65;;;16.00;;
6372;SDS011;3219;51.362;7.074;2022-08-01T06:07:51;21.42;;;16.08;;
6372;SDS011;3219;51.362;7.074;2022-08-01T06:10:18;17.67;;;14.70;;
6372;SDS011;3219;51.362;7.074;2022-08-01T06:12:45;16.95;;;14.25;;
6372;SDS011;3219;51.362;7.074;2022-08-01T06:15:12;17.83;;;14.35;;
6372;SDS011;3219;51.362;7.074;2022-08-01T06:17:39;17.40;;;15.45;;
6372;SDS011;3219;51.362;7.074;2022-08-01T06:20:07;17.02;;;14.27;;
6372;SDS011;3219;51.362;7.074;2022-08-01T06:22:36;18.88;;;13.45;;
6372;SDS011;3219;51.362;7.074;2022-08-01T06:25:03;15.15;;;13.50;;
6372;SDS011;3219;51.362;7.074;2022-08-01T06:27:33;15.65;;;13.70;;
6372;SDS011;3219;51.362;7.074;2022-08-01T06:30:00;16.90;;;13.52;;
6372;SDS011;3219;51.362;7.074;2022-08-01T06:32:28;14.60;;;13.07;;
6372;SDS011;3219;51.362;7.074;2022-08-01T06:34:56;17.10;;;13.48;;
6372;SDS011;3219;51.362;7.074;2022-08-01T06:37:23;16.23;;;13.93;;
6372;SDS011;3219;51.362;7.074;2022-08-01T06:39:51;19.50;;;14.30;;
6372;SDS011;3219;51.362;7.074;2022-08-01T06:42:18;19.48;;;15.98;;
6372;SDS011;3219;51.362;7.074;2022-08-01T06:44:45;21.08;;;18.20;;
6372;SDS011;3219;51.362;7.074;2022-08-01T06:47:12;17.23;;;15.45;;
6372;SDS011;3219;51.362;7.074;2022-08-01T06:49:40;18.95;;;15.88;;
6372;SDS011;3219;51.362;7.074;2022-08-01T06:52:07;22.25;;;16.52;;
6372;SDS011;3219;51.362;7.074;2022-08-01T06:54:34;17.30;;;15.30;;
6372;SDS011;3219;51.362;7.074;2022-08-01T06:57:03;18.73;;;15.85;;
6372;SDS011;3219;51.362;7.074;2022-08-01T06:59:31;14.85;;;11.48;;
6372;SDS011;3219;51.362;7.074;2022-08-01T07:01:58;10.07;;;8.88;;
6372;SDS011;3219;51.362;7.074;2022-08-01T07:04:26;9.85;;;8.13;;
6372;SDS011;3219;51.362;7.074;2022-08-01T07:06:53;8.82;;;6.82;;
6372;SDS011;3219;51.362;7.074;2022-08-01T07:09:20;8.30;;;5.40;;
6372;SDS011;3219;51.362;7.074;2022-08-01T07:11:47;5.65;;;4.80;;
6372;SDS011;3219;51.362;7.074;2022-08-01T07:14:16;9.48;;;5.53;;
6372;SDS011;3219;51.362;7.074;2022-08-01T07:16:43;6.57;;;5.68;;
6372;SDS011;3219;51.362;7.074;2022-08-01T07:19:11;7.40;;;4.72;;
6372;SDS011;3219;51.362;7.074;2022-08-01T07:21:38;6.95;;;6.25;;
6372;SDS011;3219;51.362;7.074;2022-08-01T07:24:06;7.03;;;5.63;;
6372;SDS011;3219;51.362;7.074;2022-08-01T07:26:33;6.25;;;5.57;;
6372;SDS011;3219;51.362;7.074;2022-08-01T07:29:00;7.13;;;4.82;;
6372;SDS011;3219;51.362;7.074;2022-08-01T07:31:29;4.78;;;4.30;;
6372;SDS011;3219;51.362;7.074;2022-08-01T07:33:57;4.82;;;3.60;;
6372;SDS011;3219;51.362;7.074;2022-08-01T07:36:24;6.53;;;3.95;;
6372;SDS011;3219;51.362;7.074;2022-08-01T07:38:51;4.18;;;3.03;;
6372;SDS011;3219;51.362;7.074;2022-08-01T07:41:18;5.15;;;2.30;;
6372;SDS011;3219;51.362;7.074;2022-08-01T07:43:45;2.75;;;2.00;;
6372;SDS011;3219;51.362;7.074;2022-08-01T07:46:13;3.70;;;1.90;;
6372;SDS011;3219;51.362;7.074;2022-08-01T07:48:42;2.10;;;1.73;;
6372;SDS011;3219;51.362;7.074;2022-08-01T07:51:09;3.40;;;2.30;;
6372;SDS011;3219;51.362;7.074;2022-08-01T07:53:37;3.15;;;2.40;;
6372;SDS011;3219;51.362;7.074;2022-08-01T07:56:04;2.53;;;1.95;;
6372;SDS011;3219;51.362;7.074;2022-08-01T07:58:32;2.92;;;2.25;;
6372;SDS011;3219;51.362;7.074;2022-08-01T08:00:59;4.60;;;2.20;;
6372;SDS011;3219;51.362;7.074;2022-08-01T08:03:26;2.10;;;1.67;;
6372;SDS011;3219;51.362;7.074;2022-08-01T08:05:54;2.53;;;2.00;;
6372;SDS011;3219;51.362;7.074;2022-08-01T08:08:22;2.42;;;1.67;;
6372;SDS011;3219;51.362;7.074;2022-08-01T08:10:49;4.35;;;2.25;;
6372;SDS011;3219;51.362;7.074;2022-08-01T08:13:16;4.22;;;1.77;;
6372;SDS011;3219;51.362;7.074;2022-08-01T08:15:43;4.80;;;2.28;;
6372;SDS011;3219;51.362;7.074;2022-08-01T08:18:10;7.38;;;2.33;;
6372;SDS011;3219;51.362;7.074;2022-08-01T08:20:37;2.00;;;1.75;;
6372;SDS011;3219;51.362;7.074;2022-08-01T08:23:06;1.80;;;1.70;;
6372;SDS011;3219;51.362;7.074;2022-08-01T08:25:47;7.85;;;2.03;;
6372;SDS011;3219;51.362;7.074;2022-08-01T08:28:14;5.80;;;1.90;;
6372;SDS011;3219;51.362;7.074;2022-08-01T08:30:41;3.67;;;1.70;;
6372;SDS011;3219;51.362;7.074;2022-08-01T08:33:08;4.10;;;1.73;;
6372;SDS011;3219;51.362;7.074;2022-08-01T08:35:35;3.80;;;1.67;;
6372;SDS011;3219;51.362;7.074;2022-08-01T08:38:02;2.55;;;1.52;;
6372;SDS011;3219;51.362;7.074;2022-08-01T08:40:30;4.20;;;1.90;;
6372;SDS011;3219;51.362;7.074;2022-08-01T08:42:58;3.08;;;1.60;;
6372;SDS011;3219;51.362;7.074;2022-08-01T08:45:26;3.05;;;1.42;;
6372;SDS011;3219;51.362;7.074;2022-08-01T08:47:53;3.65;;;1.50;;
6372;SDS011;3219;51.362;7.074;2022-08-01T08:50:21;5.70;;;1.83;;
6372;SDS011;3219;51.362;7.074;2022-08-01T08:52:48;2.90;;;1.63;;
6372;SDS011;3219;51.362;7.074;2022-08-01T08:55:16;2.13;;;1.52;;
6372;SDS011;3219;51.362;7.074;2022-08-01T08:57:45;2.30;;;1.48;;
6372;SDS011;3219;51.362;7.074;2022-08-01T09:00:13;2.13;;;1.38;;
6372;SDS011;3219;51.362;7.074;2022-08-01T09:02:41;3.10;;;1.60;;
6372;SDS011;3219;51.362;7.074;2022-08-01T09:05:09;3.15;;;1.92;;
6372;SDS011;3219;51.362;7.074;2022-08-01T09:07:36;3.20;;;1.98;;
6372;SDS011;3219;51.362;7.074;2022-08-01T09:10:04;7.20;;;2.60;;
6372;SDS011;3219;51.362;7.074;2022-08-01T09:12:31;5.38;;;2.47;;
6372;SDS011;3219;51.362;7.074;2022-08-01T09:15:00;4.53;;;2.67;;
6372;SDS011;3219;51.362;7.074;2022-08-01T09:17:27;3.10;;;2.80;;
6372;SDS011;3219;51.362;7.074;2022-08-01T09:19:54;3.42;;;2.58;;
6372;SDS011;3219;51.362;7.074;2022-08-01T09:22:22;5.05;;;2.58;;
6372;SDS011;3219;51.362;7.074;2022-08-01T09:24:57;5.20;;;2.35;;
6372;SDS011;3219;51.362;7.074;2022-08-01T09:27:24;3.05;;;2.70;;
6372;SDS011;3219;51.362;7.074;2022-08-01T09:29:52;3.83;;;2.90;;
6372;SDS011;3219;51.362;7.074;2022-08-01T09:32:21;2.80;;;2.35;;
6372;SDS011;3219;51.362;7.074;2022-08-01T09:34:48;3.22;;;2.60;;
6372;SDS011;3219;51.362;7.074;2022-08-01T09:37:15;3.58;;;2.38;;
6372;SDS011;3219;51.362;7.074;2022-08-01T09:39:43;3.05;;;2.30;;
6372;SDS011;3219;51.362;7.074;2022-08-01T09:42:21;3.33;;;2.08;;
6372;SDS011;3219;51.362;7.074;2022-08-01T09:44:49;4.97;;;1.80;;
6372;SDS011;3219;51.362;7.074;2022-08-01T09:47:16;4.93;;;1.63;;
6372;SDS011;3219;51.362;7.074;2022-08-01T09:49:53;2.72;;;1.52;;
6372;SDS011;3219;51.362;7.074;2022-08-01T09:52:21;1.85;;;1.52;;
6372;SDS011;3219;51.362;7.074;2022-08-01T09:54:51;2.60;;;1.33;;
6372;SDS011;3219;51.362;7.074;2022-08-01T09:57:18;1.92;;;1.23;;
6372;SDS011;3219;51.362;7.074;2022-08-01T09:59:46;3.10;;;1.45;;
6372;SDS011;3219;51.362;7.074;2022-08-01T10:02:14;1.40;;;1.20;;
6372;SDS011;3219;51.362;7.074;2022-08-01T10:04:54;2.25;;;1.40;;
6372;SDS011;3219;51.362;7.074;2022-08-01T10:07:21;3.72;;;1.95;;
6372;SDS011;3219;51.362;7.074;2022-08-01T10:09:48;4.50;;;1.45;;
6372;SDS011;3219;51.362;7.074;2022-08-01T10:12:17;2.35;;;1.42;;
6372;SDS011;3219;51.362;7.074;2022-08-01T10:14:45;3.15;;;1.90;;
6372;SDS011;3219;51.362;7.074;2022-08-01T10:17:13;2.13;;;1.58;;
6372;SDS011;3219;51.362;7.074;2022-08-01T10:19:41;2.65;;;1.80;;
6372;SDS011;3219;51.362;7.074;2022-08-01T10:22:12;2.45;;;1.50;;
6372;SDS011;3219;51.362;7.074;2022-08-01T10:24:41;1.50;;;1.15;;
6372;SDS011;3219;51.362;7.074;2022-08-01T10:27:10;2.75;;;1.63;;
6372;SDS011;3219;51.362;7.074;2022-08-01T10:29:40;4.55;;;1.70;;
6372;SDS011;3219;51.362;7.074;2022-08-01T10:32:07;3.08;;;1.80;;
6372;SDS011;3219;51.362;7.074;2022-08-01T10:34:36;5.53;;;2.03;;
6372;SDS011;3219;51.362;7.074;2022-08-01T10:37:03;2.47;;;1.65;;
6372;SDS011;3219;51.362;7.074;2022-08-01T10:39:32;2.45;;;1.77;;
6372;SDS011;3219;51.362;7.074;2022-08-01T10:41:59;3.10;;;1.60;;
6372;SDS011;3219;51.362;7.074;2022-08-01T10:44:27;6.93;;;1.70;;
6372;SDS011;3219;51.362;7.074;2022-08-01T10:46:55;3.35;;;1.55;;
6372;SDS011;3219;51.362;7.074;2022-08-01T10:49:24;4.32;;;1.55;;
6372;SDS011;3219;51.362;7.074;2022-08-01T10:51:53;4.13;;;1.40;;
6372;SDS011;3219;51.362;7.074;2022-08-01T10:54:23;2.28;;;1.38;;
6372;SDS011;3219;51.362;7.074;2022-08-01T10:56:52;5.43;;;1.88;;
6372;SDS011;3219;51.362;7.074;2022-08-01T10:59:22;6.05;;;1.90;;
6372;SDS011;3219;51.362;7.074;2022-08-01T11:01:55;5.40;;;1.92;;
6372;SDS011;3219;51.362;7.074;2022-08-01T11:04:31;1.40;;;1.30;;
6372;SDS011;3219;51.362;7.074;2022-08-01T11:07:02;1.48;;;1.38;;
6372;SDS011;3219;51.362;7.074;2022-08-01T11:09:37;2.75;;;1.60;;
6372;SDS011;3219;51.362;7.074;2022-08-01T11:12:07;2.63;;;1.75;;
6372;SDS011;3219;51.362;7.074;2022-08-01T11:17:30;2.45;;;1.17;;
6372;SDS011;3219;51.362;7.074;2022-08-01T11:20:04;1.30;;;1.10;;
6372;SDS011;3219;51.362;7.074;2022-08-01T11:22:31;2.33;;;1.20;;
6372;SDS011;3219;51.362;7.074;2022-08-01T11:24:58;2.67;;;1.65;;
6372;SDS011;3219;51.362;7.074;2022-08-01T11:27:28;5.35;;;1.38;;
6372;SDS011;3219;51.362;7.074;2022-08-01T11:32:45;1.67;;;1.20;;
6372;SDS011;3219;51.362;7.074;2022-08-01T11:35:12;4.93;;;1.40;;
6372;SDS011;3219;51.362;7.074;2022-08-01T11:37:40;2.00;;;1.38;;
6372;SDS011;3219;51.362;7.074;2022-08-01T11:40:14;1.65;;;1.40;;
6372;SDS011;3219;51.362;7.074;2022-08-01T11:42:42;1.33;;;1.20;;
6372;SDS011;3219;51.362;7.074;2022-08-01T11:45:09;2.15;;;1.50;;
6372;SDS011;3219;51.362;7.074;2022-08-01T11:47:43;2.72;;;1.50;;
6372;SDS011;3219;51.362;7.074;2022-08-01T11:52:56;2.42;;;1.73;;
6372;SDS011;3219;51.362;7.074;2022-08-01T11:55:24;3.92;;;1.55;;
6372;SDS011;3219;51.362;7.074;2022-08-01T11:57:59;1.85;;;0.98;;
6372;SDS011;3219;51.362;7.074;2022-08-01T12:00:26;3.30;;;1.10;;
6372;SDS011;3219;51.362;7.074;2022-08-01T12:02:59;1.20;;;1.00;;
6372;SDS011;3219;51.362;7.074;2022-08-01T12:05:27;1.42;;;0.90;;
6372;SDS011;3219;51.362;7.074;2022-08-01T12:07:54;3.67;;;0.95;;
6372;SDS011;3219;51.362;7.074;2022-08-01T12:10:22;1.40;;;0.88;;
6372;SDS011;3219;51.362;7.074;2022-08-01T12:12:50;2.53;;;1.40;;
6372;SDS011;3219;51.362;7.074;2022-08-01T12:15:19;2.40;;;1.10;;
6372;SDS011;3219;51.362;7.074;2022-08-01T12:17:48;2.53;;;1.00;;
6372;SDS011;3219;51.362;7.074;2022-08-01T12:20:18;1.77;;;1.08;;
6372;SDS011;3219;51.362;7.074;2022-08-01T12:22:46;3.20;;;1.42;;
6372;SDS011;3219;51.362;7.074;2022-08-01T12:25:14;3.67;;;1.95;;
6372;SDS011;3219;51.362;7.074;2022-08-01T12:27:42;2.40;;;1.00;;
6372;SDS011;3219;51.362;7.074;2022-08-01T12:30:10;3.35;;;1.10;;
6372;SDS011;3219;51.362;7.074;2022-08-01T12:32:40;1.20;;;1.00;;
6372;SDS011;3219;51.362;7.074;2022-08-01T12:35:07;1.25;;;1.05;;
6372;SDS011;3219;51.362;7.074;2022-08-01T12:37:35;1.95;;;0.93;;
6372;SDS011;3219;51.362;7.074;2022-08-01T12:40:09;2.13;;;1.08;;
6372;SDS011;3219;51.362;7.074;2022-08-01T12:42:36;1.13;;;1.02;;
6372;SDS011;3219;51.362;7.074;2022-08-01T12:45:05;1.23;;;1.13;;
6372;SDS011;3219;51.362;7.074;2022-08-01T12:47:33;1.83;;;1.20;;
6372;SDS011;3219;51.362;7.074;2022-08-01T12:50:02;1.35;;;1.20;;
6372;SDS011;3219;51.362;7.074;2022-08-01T12:52:30;2.08;;;1.00;;
6372;SDS011;3219;51.362;7.074;2022-08-01T12:55:02;1.00;;;0.90;;
6372;SDS011;3219;51.362;7.074;2022-08-01T13:00:13;2.08;;;1.13;;
6372;SDS011;3219;51.362;7.074;2022-08-01T13:02:40;1.98;;;0.95;;
6372;SDS011;3219;51.362;7.074;2022-08-01T13:05:09;1.23;;;0.95;;
6372;SDS011;3219;51.362;7.074;2022-08-01T13:07:37;0.82;;;0.82;;
6372;SDS011;3219;51.362;7.074;2022-08-01T13:10:05;3.53;;;1.20;;
6372;SDS011;3219;51.362;7.074;2022-08-01T13:12:32;1.55;;;1.17;;
6372;SDS011;3219;51.362;7.074;2022-08-01T13:14:59;4.80;;;1.00;;
6372;SDS011;3219;51.362;7.074;2022-08-01T13:17:40;2.53;;;1.27;;
6372;SDS011;3219;51.362;7.074;2022-08-01T13:20:07;1.58;;;0.93;;
6372;SDS011;3219;51.362;7.074;2022-08-01T13:22:36;6.82;;;1.30;;
6372;SDS011;3219;51.362;7.074;2022-08-01T13:25:11;1.73;;;1.25;;
6372;SDS011;3219;51.362;7.074;2022-08-01T13:27:38;1.50;;;1.33;;
6372;SDS011;3219;51.362;7.074;2022-08-01T13:30:12;1.45;;;1.20;;
6372;SDS011;3219;51.362;7.074;2022-08-01T13:32:40;1.85;;;1.00;;
6372;SDS011;3219;51.362;7.074;2022-08-01T13:35:09;1.80;;;1.40;;
6372;SDS011;3219;51.362;7.074;2022-08-01T13:37:39;3.10;;;0.90;;
6372;SDS011;3219;51.362;7.074;2022-08-01T13:40:07;3.15;;;1.20;;
6372;SDS011;3219;51.362;7.074;2022-08-01T13:42:34;1.63;;;0.90;;
6372;SDS011;3219;51.362;7.074;2022-08-01T13:45:02;2.75;;;0.80;;
6372;SDS011;3219;51.362;7.074;2022-08-01T13:47:29;1.58;;;1.02;;
6372;SDS011;3219;51.362;7.074;2022-08-01T13:49:56;2.17;;;0.80;;
6372;SDS011;3219;51.362;7.074;2022-08-01T13:52:25;1.70;;;0.90;;
6372;SDS011;3219;51.362;7.074;2022-08-01T13:54:53;1.88;;;1.08;;
6372;SDS011;3219;51.362;7.074;2022-08-01T13:57:20;0.80;;;0.80;;
6372;SDS011;3219;51.362;7.074;2022-08-01T13:59:48;1.88;;;1.00;;
6372;SDS011;3219;51.362;7.074;2022-08-01T14:02:16;1.33;;;0.90;;
6372;SDS011;3219;51.362;7.074;2022-08-01T14:04:43;1.40;;;0.63;;
6372;SDS011;3219;51.362;7.074;2022-08-01T14:07:10;1.83;;;0.80;;
6372;SDS011;3219;51.362;7.074;2022-08-01T14:09:37;1.17;;;0.80;;
6372;SDS011;3219;51.362;7.074;2022-08-01T14:12:06;1.30;;;0.80;;
6372;SDS011;3219;51.362;7.074;2022-08-01T14:14:34;6.18;;;1.17;;
6372;SDS011;3219;51.362;7.074;2022-08-01T14:17:01;2.58;;;1.10;;
6372;SDS011;3219;51.362;7.074;2022-08-01T14:19:28;2.25;;;1.00;;
6372;SDS011;3219;51.362;7.074;2022-08-01T14:21:55;3.08;;;1.30;;
6372;SDS011;3219;51.362;7.074;2022-08-01T14:24:23;3.08;;;1.08;;
6372;SDS011;3219;51.362;7.074;2022-08-01T14:26:51;3.42;;;1.20;;
6372;SDS011;3219;51.362;7.074;2022-08-01T14:29:19;1.63;;;0.93;;
6372;SDS011;3219;51.362;7.074;2022-08-01T14:31:46;2.05;;;1.10;;
6372;SDS011;3219;51.362;7.074;2022-08-01T14:34:13;1.98;;;1.20;;
6372;SDS011;3219;51.362;7.074;2022-08-01T14:36:41;2.03;;;1.02;;
6372;SDS011;3219;51.362;7.074;2022-08-01T14:39:08;2.55;;;1.30;;
6372;SDS011;3219;51.362;7.074;2022-08-01T14:41:36;2.05;;;1.10;;
6372;SDS011;3219;51.362;7.074;2022-08-01T14:44:03;2.45;;;1.38;;
6372;SDS011;3219;51.362;7.074;2022-08-01T14:46:32;5.45;;;1.15;;
6372;SDS011;3219;51.362;7.074;2022-08-01T14:48:59;2.78;;;1.00;;
6372;SDS011;3219;51.362;7.074;2022-08-01T14:51:26;2.00;;;1.20;;
6372;SDS011;3219;51.362;7.074;2022-08-01T14:53:57;2.47;;;1.00;;
6372;SDS011;3219;51.362;7.074;2022-08-01T14:56:25;2.85;;;0.88;;
6372;SDS011;3219;51.362;7.074;2022-08-01T14:58:52;1.98;;;1.08;;
6372;SDS011;3219;51.362;7.074;2022-08-01T15:01:19;2.10;;;1.10;;
6372;SDS011;3219;51.362;7.074;2022-08-01T15:03:47;4.63;;;1.17;;
6372;SDS011;3219;51.362;7.074;2022-08-01T15:06:15;1.52;;;1.00;;
6372;SDS011;3219;51.362;7.074;2022-08-01T15:08:42;2.67;;;1.05;;
6372;SDS011;3219;51.362;7.074;2022-08-01T15:11:10;3.15;;;1.05;;
6372;SDS011;3219;51.362;7.074;2022-08-01T15:13:37;1.73;;;1.20;;
6372;SDS011;3219;51.362;7.074;2022-08-01T15:16:04;2.30;;;1.20;;
6372;SDS011;3219;51.362;7.074;2022-08-01T15:18:31;1.15;;;1.05;;
6372;SDS011;3219;51.362;7.074;2022-08-01T15:21:00;3.75;;;1.27;;